sensor_id;sensor_type;location;lat;lon;timestamp;P1;durP1;ratioP1;P2;durP2;ratioP2
63312;SDS011;49442;45.640;13.812;2023-04-24T00:00:00;7.75;;;4.20;;
63312;SDS011;49442;45.640;13.812;2023-04-24T00:02:30;5.88;;;4.05;;
63312;SDS011;49442;45.640;13.812;2023-04-24T00:04:57;10.50;;;4.63;;
63312;SDS011;49442;45.640;13.812;2023-04-24T00:07:27;6.45;;;4.00;;
63312;SDS011;49442;45.640;13.812;2023-04-24T00:09:53;10.95;;;4.45;;
63312;SDS011;49442;45.640;13.812;2023-04-24T00:12:19;8.35;;;3.78;;
63312;SDS011;49442;45.640;13.812;2023-04-24T00:14:45;6.43;;;4.35;;
63312;SDS011;49442;45.640;13.812;2023-04-24T00:17:11;7.63;;;4.20;;
63312;SDS011;49442;45.640;13.812;2023-04-24T00:19:36;8.65;;;4.38;;
63312;SDS011;49442;45.640;13.812;2023-04-24T00:22:02;11.77;;;4.60;;
63312;SDS011;49442;45.640;13.812;2023-04-24T00:24:28;7.20;;;4.10;;
63312;SDS011;49442;45.640;13.812;2023-04-24T00:26:54;7.72;;;4.72;;
63312;SDS011;49442;45.640;13.812;2023-04-24T00:29:20;9.10;;;4.85;;
63312;SDS011;49442;45.640;13.812;2023-04-24T00:31:46;9.63;;;4.47;;
63312;SDS011;49442;45.640;13.812;2023-04-24T00:34:11;8.77;;;4.80;;
63312;SDS011;49442;45.640;13.812;2023-04-24T00:36:37;5.35;;;4.57;;
63312;SDS011;49442;45.640;13.812;2023-04-24T00:39:03;6.53;;;5.03;;
63312;SDS011;49442;45.640;13.812;2023-04-24T00:41:29;6.72;;;4.47;;
63312;SDS011;49442;45.640;13.812;2023-04-24T00:43:55;8.48;;;5.07;;
63312;SDS011;49442;45.640;13.812;2023-04-24T00:46:21;11.05;;;4.60;;
63312;SDS011;49442;45.640;13.812;2023-04-24T00:48:47;12.02;;;5.28;;
63312;SDS011;49442;45.640;13.812;2023-04-24T00:51:13;9.88;;;4.90;;
63312;SDS011;49442;45.640;13.812;2023-04-24T00:53:38;9.25;;;5.00;;
63312;SDS011;49442;45.640;13.812;2023-04-24T00:56:04;9.43;;;5.25;;
63312;SDS011;49442;45.640;13.812;2023-04-24T00:58:30;7.63;;;4.90;;
63312;SDS011;49442;45.640;13.812;2023-04-24T01:00:56;7.65;;;4.78;;
63312;SDS011;49442;45.640;13.812;2023-04-24T01:03:24;8.55;;;4.85;;
63312;SDS011;49442;45.640;13.812;2023-04-24T01:05:53;7.40;;;4.47;;
63312;SDS011;49442;45.640;13.812;2023-04-24T01:08:20;6.45;;;4.60;;
63312;SDS011;49442;45.640;13.812;2023-04-24T01:10:48;9.07;;;5.10;;
63312;SDS011;49442;45.640;13.812;2023-04-24T01:13:19;7.25;;;4.93;;
63312;SDS011;49442;45.640;13.812;2023-04-24T01:15:45;9.13;;;5.38;;
63312;SDS011;49442;45.640;13.812;2023-04-24T01:18:12;8.23;;;4.97;;
63312;SDS011;49442;45.640;13.812;2023-04-24T01:20:41;5.82;;;4.82;;
63312;SDS011;49442;45.640;13.812;2023-04-24T01:23:09;11.15;;;6.18;;
63312;SDS011;49442;45.640;13.812;2023-04-24T01:25:35;7.22;;;5.28;;
63312;SDS011;49442;45.640;13.812;2023-04-24T01:28:01;8.75;;;4.85;;
63312;SDS011;49442;45.640;13.812;2023-04-24T01:30:28;8.43;;;4.43;;
63312;SDS011;49442;45.640;13.812;2023-04-24T01:32:54;15.32;;;5.10;;
63312;SDS011;49442;45.640;13.812;2023-04-24T01:35:21;9.23;;;5.60;;
63312;SDS011;49442;45.640;13.812;2023-04-24T01:37:47;6.82;;;4.45;;
63312;SDS011;49442;45.640;13.812;2023-04-24T01:40:12;8.38;;;4.78;;
63312;SDS011;49442;45.640;13.812;2023-04-24T01:42:38;8.77;;;5.03;;
63312;SDS011;49442;45.640;13.812;2023-04-24T01:45:07;8.93;;;4.85;;
63312;SDS011;49442;45.640;13.812;2023-04-24T01:47:36;9.60;;;5.28;;
63312;SDS011;49442;45.640;13.812;2023-04-24T01:50:03;9.20;;;5.20;;
63312;SDS011;49442;45.640;13.812;2023-04-24T01:52:30;11.38;;;4.70;;
63312;SDS011;49442;45.640;13.812;2023-04-24T01:55:00;11.95;;;5.60;;
63312;SDS011;49442;45.640;13.812;2023-04-24T01:57:28;9.13;;;5.40;;
63312;SDS011;49442;45.640;13.812;2023-04-24T01:59:55;13.13;;;5.10;;
63312;SDS011;49442;45.640;13.812;2023-04-24T02:02:21;12.80;;;5.00;;
63312;SDS011;49442;45.640;13.812;2023-04-24T02:04:49;9.68;;;4.90;;
63312;SDS011;49442;45.640;13.812;2023-04-24T02:07:15;6.95;;;5.05;;
63312;SDS011;49442;45.640;13.812;2023-04-24T02:09:41;7.20;;;4.95;;
63312;SDS011;49442;45.640;13.812;2023-04-24T02:12:06;12.38;;;4.72;;
63312;SDS011;49442;45.640;13.812;2023-04-24T02:14:32;7.80;;;4.97;;
63312;SDS011;49442;45.640;13.812;2023-04-24T02:16:58;10.70;;;5.95;;
63312;SDS011;49442;45.640;13.812;2023-04-24T02:19:24;10.10;;;5.20;;
63312;SDS011;49442;45.640;13.812;2023-04-24T02:21:49;9.43;;;5.22;;
63312;SDS011;49442;45.640;13.812;2023-04-24T02:24:15;9.75;;;5.28;;
63312;SDS011;49442;45.640;13.812;2023-04-24T02:26:41;12.45;;;5.65;;
63312;SDS011;49442;45.640;13.812;2023-04-24T02:29:07;9.13;;;4.93;;
63312;SDS011;49442;45.640;13.812;2023-04-24T02:31:32;10.05;;;5.05;;
63312;SDS011;49442;45.640;13.812;2023-04-24T02:33:58;6.97;;;5.00;;
63312;SDS011;49442;45.640;13.812;2023-04-24T02:36:24;12.82;;;5.00;;
63312;SDS011;49442;45.640;13.812;2023-04-24T02:38:50;8.40;;;4.70;;
63312;SDS011;49442;45.640;13.812;2023-04-24T02:41:16;10.63;;;4.60;;
63312;SDS011;49442;45.640;13.812;2023-04-24T02:43:41;7.68;;;4.38;;
63312;SDS011;49442;45.640;13.812;2023-04-24T02:46:07;9.70;;;4.93;;
63312;SDS011;49442;45.640;13.812;2023-04-24T02:48:33;13.50;;;5.45;;
63312;SDS011;49442;45.640;13.812;2023-04-24T02:50:58;11.32;;;5.35;;
63312;SDS011;49442;45.640;13.812;2023-04-24T02:53:24;15.05;;;4.97;;
63312;SDS011;49442;45.640;13.812;2023-04-24T02:55:50;10.20;;;4.25;;
63312;SDS011;49442;45.640;13.812;2023-04-24T02:58:16;7.10;;;5.35;;
63312;SDS011;49442;45.640;13.812;2023-04-24T03:00:42;12.73;;;4.63;;
63312;SDS011;49442;45.640;13.812;2023-04-24T03:03:08;12.75;;;5.32;;
63312;SDS011;49442;45.640;13.812;2023-04-24T03:05:34;11.02;;;5.47;;
63312;SDS011;49442;45.640;13.812;2023-04-24T03:08:00;15.73;;;5.53;;
63312;SDS011;49442;45.640;13.812;2023-04-24T03:10:26;7.50;;;4.85;;
63312;SDS011;49442;45.640;13.812;2023-04-24T03:12:51;7.72;;;5.30;;
63312;SDS011;49442;45.640;13.812;2023-04-24T03:15:17;9.45;;;5.35;;
63312;SDS011;49442;45.640;13.812;2023-04-24T03:17:43;8.95;;;5.18;;
63312;SDS011;49442;45.640;13.812;2023-04-24T03:20:09;10.15;;;5.80;;
63312;SDS011;49442;45.640;13.812;2023-04-24T03:22:34;9.75;;;5.13;;
63312;SDS011;49442;45.640;13.812;2023-04-24T03:25:00;14.90;;;6.25;;
63312;SDS011;49442;45.640;13.812;2023-04-24T03:27:26;12.90;;;5.53;;
63312;SDS011;49442;45.640;13.812;2023-04-24T03:29:52;11.73;;;5.97;;
63312;SDS011;49442;45.640;13.812;2023-04-24T03:32:20;7.88;;;5.95;;
63312;SDS011;49442;45.640;13.812;2023-04-24T03:34:47;12.93;;;6.28;;
63312;SDS011;49442;45.640;13.812;2023-04-24T03:37:13;16.35;;;6.07;;
63312;SDS011;49442;45.640;13.812;2023-04-24T03:39:39;10.70;;;5.53;;
63312;SDS011;49442;45.640;13.812;2023-04-24T03:42:05;11.85;;;5.90;;
63312;SDS011;49442;45.640;13.812;2023-04-24T03:44:31;17.02;;;5.68;;
63312;SDS011;49442;45.640;13.812;2023-04-24T03:46:57;11.77;;;5.57;;
63312;SDS011;49442;45.640;13.812;2023-04-24T03:49:23;11.68;;;5.80;;
63312;SDS011;49442;45.640;13.812;2023-04-24T03:51:49;6.68;;;5.45;;
63312;SDS011;49442;45.640;13.812;2023-04-24T03:54:15;9.73;;;5.05;;
63312;SDS011;49442;45.640;13.812;2023-04-24T03:56:41;10.32;;;4.28;;
63312;SDS011;49442;45.640;13.812;2023-04-24T03:59:07;11.40;;;5.35;;
63312;SDS011;49442;45.640;13.812;2023-04-24T04:01:32;8.77;;;4.75;;
63312;SDS011;49442;45.640;13.812;2023-04-24T04:04:01;12.77;;;5.13;;
63312;SDS011;49442;45.640;13.812;2023-04-24T04:06:27;8.35;;;5.03;;
63312;SDS011;49442;45.640;13.812;2023-04-24T04:08:53;9.88;;;4.50;;
63312;SDS011;49442;45.640;13.812;2023-04-24T04:11:19;10.07;;;4.90;;
63312;SDS011;49442;45.640;13.812;2023-04-24T04:13:45;7.47;;;4.82;;
63312;SDS011;49442;45.640;13.812;2023-04-24T04:16:12;8.85;;;5.05;;
63312;SDS011;49442;45.640;13.812;2023-04-24T04:18:38;8.13;;;4.93;;
63312;SDS011;49442;45.640;13.812;2023-04-24T04:21:04;7.53;;;4.75;;
63312;SDS011;49442;45.640;13.812;2023-04-24T04:23:30;9.95;;;5.00;;
63312;SDS011;49442;45.640;13.812;2023-04-24T04:25:57;9.43;;;5.35;;
63312;SDS011;49442;45.640;13.812;2023-04-24T04:28:23;8.98;;;4.95;;
63312;SDS011;49442;45.640;13.812;2023-04-24T04:30:49;8.50;;;5.05;;
63312;SDS011;49442;45.640;13.812;2023-04-24T04:33:19;9.20;;;4.55;;
63312;SDS011;49442;45.640;13.812;2023-04-24T04:35:45;6.13;;;4.10;;
63312;SDS011;49442;45.640;13.812;2023-04-24T04:38:13;8.38;;;4.57;;
63312;SDS011;49442;45.640;13.812;2023-04-24T04:40:40;6.93;;;4.97;;
63312;SDS011;49442;45.640;13.812;2023-04-24T04:43:06;10.05;;;4.95;;
63312;SDS011;49442;45.640;13.812;2023-04-24T04:45:32;8.52;;;5.25;;
63312;SDS011;49442;45.640;13.812;2023-04-24T04:47:59;13.15;;;6.53;;
63312;SDS011;49442;45.640;13.812;2023-04-24T04:50:27;16.00;;;5.30;;
63312;SDS011;49442;45.640;13.812;2023-04-24T04:52:52;12.63;;;5.10;;
63312;SDS011;49442;45.640;13.812;2023-04-24T04:55:18;15.60;;;5.50;;
63312;SDS011;49442;45.640;13.812;2023-04-24T04:57:47;13.07;;;6.00;;
63312;SDS011;49442;45.640;13.812;2023-04-24T05:00:13;16.88;;;5.47;;
63312;SDS011;49442;45.640;13.812;2023-04-24T05:02:39;10.43;;;5.07;;
63312;SDS011;49442;45.640;13.812;2023-04-24T05:05:05;7.97;;;5.72;;
63312;SDS011;49442;45.640;13.812;2023-04-24T05:07:32;12.07;;;5.43;;
63312;SDS011;49442;45.640;13.812;2023-04-24T05:09:58;9.75;;;5.50;;
63312;SDS011;49442;45.640;13.812;2023-04-24T05:12:23;10.40;;;5.30;;
63312;SDS011;49442;45.640;13.812;2023-04-24T05:14:49;10.73;;;5.30;;
63312;SDS011;49442;45.640;13.812;2023-04-24T05:17:15;12.85;;;5.35;;
63312;SDS011;49442;45.640;13.812;2023-04-24T05:19:41;13.75;;;5.35;;
63312;SDS011;49442;45.640;13.812;2023-04-24T05:22:07;9.90;;;5.75;;
63312;SDS011;49442;45.640;13.812;2023-04-24T05:24:34;16.67;;;5.75;;
63312;SDS011;49442;45.640;13.812;2023-04-24T05:27:00;12.77;;;5.65;;
63312;SDS011;49442;45.640;13.812;2023-04-24T05:31:58;10.25;;;5.43;;
63312;SDS011;49442;45.640;13.812;2023-04-24T05:34:25;10.23;;;5.18;;
63312;SDS011;49442;45.640;13.812;2023-04-24T05:36:51;9.07;;;5.28;;
63312;SDS011;49442;45.640;13.812;2023-04-24T05:39:18;10.15;;;5.10;;
63312;SDS011;49442;45.640;13.812;2023-04-24T05:41:44;13.05;;;5.38;;
63312;SDS011;49442;45.640;13.812;2023-04-24T05:44:10;9.82;;;5.15;;
63312;SDS011;49442;45.640;13.812;2023-04-24T05:46:36;11.20;;;5.82;;
63312;SDS011;49442;45.640;13.812;2023-04-24T05:49:02;10.98;;;4.97;;
63312;SDS011;49442;45.640;13.812;2023-04-24T05:51:27;11.65;;;5.30;;
63312;SDS011;49442;45.640;13.812;2023-04-24T05:53:53;14.48;;;5.55;;
63312;SDS011;49442;45.640;13.812;2023-04-24T05:56:20;11.50;;;5.78;;
63312;SDS011;49442;45.640;13.812;2023-04-24T05:58:47;15.45;;;5.75;;
63312;SDS011;49442;45.640;13.812;2023-04-24T06:01:13;9.27;;;5.32;;
63312;SDS011;49442;45.640;13.812;2023-04-24T06:03:42;12.27;;;6.00;;
63312;SDS011;49442;45.640;13.812;2023-04-24T06:06:08;13.23;;;6.35;;
63312;SDS011;49442;45.640;13.812;2023-04-24T06:08:34;10.35;;;5.28;;
63312;SDS011;49442;45.640;13.812;2023-04-24T06:11:00;12.45;;;5.28;;
63312;SDS011;49442;45.640;13.812;2023-04-24T06:13:26;12.52;;;5.85;;
63312;SDS011;49442;45.640;13.812;2023-04-24T06:15:52;7.47;;;5.10;;
63312;SDS011;49442;45.640;13.812;2023-04-24T06:18:18;10.75;;;5.20;;
63312;SDS011;49442;45.640;13.812;2023-04-24T06:20:44;9.60;;;5.55;;
63312;SDS011;49442;45.640;13.812;2023-04-24T06:23:11;14.07;;;6.70;;
63312;SDS011;49442;45.640;13.812;2023-04-24T06:25:37;8.55;;;5.68;;
63312;SDS011;49442;45.640;13.812;2023-04-24T06:28:03;8.32;;;5.20;;
63312;SDS011;49442;45.640;13.812;2023-04-24T06:30:29;12.63;;;6.50;;
63312;SDS011;49442;45.640;13.812;2023-04-24T06:32:55;9.88;;;5.82;;
63312;SDS011;49442;45.640;13.812;2023-04-24T06:35:21;10.82;;;5.47;;
63312;SDS011;49442;45.640;13.812;2023-04-24T06:37:46;13.23;;;6.47;;
63312;SDS011;49442;45.640;13.812;2023-04-24T06:40:15;14.07;;;6.20;;
63312;SDS011;49442;45.640;13.812;2023-04-24T06:42:43;11.65;;;6.30;;
63312;SDS011;49442;45.640;13.812;2023-04-24T06:45:09;12.00;;;6.78;;
63312;SDS011;49442;45.640;13.812;2023-04-24T06:47:36;12.75;;;6.55;;
63312;SDS011;49442;45.640;13.812;2023-04-24T06:50:02;13.18;;;6.93;;
63312;SDS011;49442;45.640;13.812;2023-04-24T06:52:28;10.30;;;5.95;;
63312;SDS011;49442;45.640;13.812;2023-04-24T06:55:01;16.00;;;7.65;;
63312;SDS011;49442;45.640;13.812;2023-04-24T06:57:28;9.30;;;6.60;;
63312;SDS011;49442;45.640;13.812;2023-04-24T06:59:54;15.52;;;6.38;;
63312;SDS011;49442;45.640;13.812;2023-04-24T07:02:19;12.35;;;6.97;;
63312;SDS011;49442;45.640;13.812;2023-04-24T07:04:45;14.95;;;7.20;;
63312;SDS011;49442;45.640;13.812;2023-04-24T07:07:12;10.15;;;6.22;;
63312;SDS011;49442;45.640;13.812;2023-04-24T07:09:39;12.65;;;7.00;;
63312;SDS011;49442;45.640;13.812;2023-04-24T07:12:07;13.98;;;7.93;;
63312;SDS011;49442;45.640;13.812;2023-04-24T07:14:33;10.98;;;6.32;;
63312;SDS011;49442;45.640;13.812;2023-04-24T07:16:59;10.43;;;6.78;;
63312;SDS011;49442;45.640;13.812;2023-04-24T07:19:24;10.95;;;5.75;;
63312;SDS011;49442;45.640;13.812;2023-04-24T07:21:50;12.95;;;6.10;;
63312;SDS011;49442;45.640;13.812;2023-04-24T07:24:16;10.80;;;6.18;;
63312;SDS011;49442;45.640;13.812;2023-04-24T07:26:42;11.60;;;6.30;;
63312;SDS011;49442;45.640;13.812;2023-04-24T07:29:08;13.82;;;6.40;;
63312;SDS011;49442;45.640;13.812;2023-04-24T07:31:33;10.98;;;6.50;;
63312;SDS011;49442;45.640;13.812;2023-04-24T07:33:59;15.02;;;6.78;;
63312;SDS011;49442;45.640;13.812;2023-04-24T07:36:25;14.15;;;6.50;;
63312;SDS011;49442;45.640;13.812;2023-04-24T07:38:51;15.02;;;7.40;;
63312;SDS011;49442;45.640;13.812;2023-04-24T07:41:17;13.77;;;6.47;;
63312;SDS011;49442;45.640;13.812;2023-04-24T07:43:44;10.13;;;7.53;;
63312;SDS011;49442;45.640;13.812;2023-04-24T07:46:10;12.48;;;7.90;;
63312;SDS011;49442;45.640;13.812;2023-04-24T07:48:36;9.45;;;6.68;;
63312;SDS011;49442;45.640;13.812;2023-04-24T07:51:02;13.55;;;6.47;;
63312;SDS011;49442;45.640;13.812;2023-04-24T07:53:28;11.23;;;7.00;;
63312;SDS011;49442;45.640;13.812;2023-04-24T07:55:54;13.65;;;8.00;;
63312;SDS011;49442;45.640;13.812;2023-04-24T07:58:20;11.10;;;7.45;;
63312;SDS011;49442;45.640;13.812;2023-04-24T08:00:46;8.23;;;6.78;;
63312;SDS011;49442;45.640;13.812;2023-04-24T08:03:12;12.77;;;7.53;;
63312;SDS011;49442;45.640;13.812;2023-04-24T08:05:38;13.52;;;8.27;;
63312;SDS011;49442;45.640;13.812;2023-04-24T08:08:04;9.02;;;6.40;;
63312;SDS011;49442;45.640;13.812;2023-04-24T08:10:29;14.35;;;7.32;;
63312;SDS011;49442;45.640;13.812;2023-04-24T08:12:55;9.52;;;7.15;;
63312;SDS011;49442;45.640;13.812;2023-04-24T08:15:21;12.18;;;8.10;;
63312;SDS011;49442;45.640;13.812;2023-04-24T08:17:47;13.35;;;7.55;;
63312;SDS011;49442;45.640;13.812;2023-04-24T08:20:12;12.75;;;6.15;;
63312;SDS011;49442;45.640;13.812;2023-04-24T08:22:39;13.27;;;6.10;;
63312;SDS011;49442;45.640;13.812;2023-04-24T08:25:05;10.88;;;6.45;;
63312;SDS011;49442;45.640;13.812;2023-04-24T08:27:31;13.52;;;7.80;;
63312;SDS011;49442;45.640;13.812;2023-04-24T08:29:57;11.50;;;6.57;;
63312;SDS011;49442;45.640;13.812;2023-04-24T08:32:24;7.10;;;5.65;;
63312;SDS011;49442;45.640;13.812;2023-04-24T08:34:53;11.15;;;5.05;;
63312;SDS011;49442;45.640;13.812;2023-04-24T08:37:21;7.72;;;5.47;;
63312;SDS011;49442;45.640;13.812;2023-04-24T08:39:47;8.20;;;4.20;;
63312;SDS011;49442;45.640;13.812;2023-04-24T08:42:13;6.82;;;4.30;;
63312;SDS011;49442;45.640;13.812;2023-04-24T08:44:40;6.88;;;4.70;;
63312;SDS011;49442;45.640;13.812;2023-04-24T08:47:06;4.65;;;4.18;;
63312;SDS011;49442;45.640;13.812;2023-04-24T08:49:33;7.93;;;3.88;;
63312;SDS011;49442;45.640;13.812;2023-04-24T08:52:01;5.78;;;3.60;;
63312;SDS011;49442;45.640;13.812;2023-04-24T08:54:28;3.95;;;3.50;;
63312;SDS011;49442;45.640;13.812;2023-04-24T08:56:54;5.50;;;3.70;;
63312;SDS011;49442;45.640;13.812;2023-04-24T08:59:26;5.32;;;3.50;;
63312;SDS011;49442;45.640;13.812;2023-04-24T09:01:52;5.38;;;3.67;;
63312;SDS011;49442;45.640;13.812;2023-04-24T09:04:20;4.25;;;3.05;;
63312;SDS011;49442;45.640;13.812;2023-04-24T09:06:48;6.53;;;4.00;;
63312;SDS011;49442;45.640;13.812;2023-04-24T09:09:15;5.47;;;4.10;;
63312;SDS011;49442;45.640;13.812;2023-04-24T09:11:42;6.70;;;4.47;;
63312;SDS011;49442;45.640;13.812;2023-04-24T09:14:09;5.72;;;3.78;;
63312;SDS011;49442;45.640;13.812;2023-04-24T09:16:35;7.18;;;4.85;;
63312;SDS011;49442;45.640;13.812;2023-04-24T09:19:01;7.10;;;4.32;;
63312;SDS011;49442;45.640;13.812;2023-04-24T09:21:30;5.78;;;4.22;;
63312;SDS011;49442;45.640;13.812;2023-04-24T09:23:58;7.85;;;5.03;;
63312;SDS011;49442;45.640;13.812;2023-04-24T09:26:25;6.68;;;4.68;;
63312;SDS011;49442;45.640;13.812;2023-04-24T09:28:54;8.95;;;5.28;;
63312;SDS011;49442;45.640;13.812;2023-04-24T09:31:19;6.65;;;3.85;;
63312;SDS011;49442;45.640;13.812;2023-04-24T09:33:54;7.07;;;4.43;;
63312;SDS011;49442;45.640;13.812;2023-04-24T09:36:26;6.25;;;4.25;;
63312;SDS011;49442;45.640;13.812;2023-04-24T09:38:59;5.05;;;4.18;;
63312;SDS011;49442;45.640;13.812;2023-04-24T09:41:26;6.80;;;4.90;;
63312;SDS011;49442;45.640;13.812;2023-04-24T09:43:53;9.43;;;5.60;;
63312;SDS011;49442;45.640;13.812;2023-04-24T09:46:20;7.13;;;5.00;;
63312;SDS011;49442;45.640;13.812;2023-04-24T09:48:49;4.85;;;4.22;;
63312;SDS011;49442;45.640;13.812;2023-04-24T09:51:14;6.10;;;4.75;;
63312;SDS011;49442;45.640;13.812;2023-04-24T09:53:45;6.25;;;4.15;;
63312;SDS011;49442;45.640;13.812;2023-04-24T09:56:11;6.32;;;4.82;;
63312;SDS011;49442;45.640;13.812;2023-04-24T09:58:38;7.35;;;4.78;;
63312;SDS011;49442;45.640;13.812;2023-04-24T10:01:04;5.78;;;4.30;;
63312;SDS011;49442;45.640;13.812;2023-04-24T10:03:30;7.32;;;3.72;;
63312;SDS011;49442;45.640;13.812;2023-04-24T10:06:03;4.00;;;3.33;;
63312;SDS011;49442;45.640;13.812;2023-04-24T10:08:34;4.63;;;3.17;;
63312;SDS011;49442;45.640;13.812;2023-04-24T10:11:00;7.55;;;4.00;;
63312;SDS011;49442;45.640;13.812;2023-04-24T10:13:26;7.13;;;4.00;;
63312;SDS011;49442;45.640;13.812;2023-04-24T10:15:53;5.90;;;3.22;;
63312;SDS011;49442;45.640;13.812;2023-04-24T10:18:21;6.30;;;3.40;;
63312;SDS011;49442;45.640;13.812;2023-04-24T10:20:47;6.90;;;4.25;;
63312;SDS011;49442;45.640;13.812;2023-04-24T10:23:13;5.32;;;4.38;;
63312;SDS011;49442;45.640;13.812;2023-04-24T10:25:40;6.90;;;4.47;;
63312;SDS011;49442;45.640;13.812;2023-04-24T10:28:06;5.63;;;4.40;;
63312;SDS011;49442;45.640;13.812;2023-04-24T10:30:32;6.03;;;4.50;;
63312;SDS011;49442;45.640;13.812;2023-04-24T10:33:07;5.15;;;4.03;;
63312;SDS011;49442;45.640;13.812;2023-04-24T10:40:33;5.72;;;3.92;;
63312;SDS011;49442;45.640;13.812;2023-04-24T10:43:02;4.28;;;3.67;;
63312;SDS011;49442;45.640;13.812;2023-04-24T10:45:31;7.43;;;3.90;;
63312;SDS011;49442;45.640;13.812;2023-04-24T10:48:04;5.20;;;3.40;;
63312;SDS011;49442;45.640;13.812;2023-04-24T10:50:45;5.82;;;3.60;;
63312;SDS011;49442;45.640;13.812;2023-04-24T10:53:19;5.43;;;3.58;;
63312;SDS011;49442;45.640;13.812;2023-04-24T10:58:23;4.97;;;3.33;;
63312;SDS011;49442;45.640;13.812;2023-04-24T11:01:00;4.38;;;3.50;;
63312;SDS011;49442;45.640;13.812;2023-04-24T11:06:06;4.30;;;2.40;;
63312;SDS011;49442;45.640;13.812;2023-04-24T11:08:40;3.88;;;2.80;;
63312;SDS011;49442;45.640;13.812;2023-04-24T11:16:32;5.15;;;3.47;;
63312;SDS011;49442;45.640;13.812;2023-04-24T11:19:10;5.55;;;2.97;;
63312;SDS011;49442;45.640;13.812;2023-04-24T11:21:58;7.10;;;3.30;;
63312;SDS011;49442;45.640;13.812;2023-04-24T11:29:47;8.63;;;4.78;;
63312;SDS011;49442;45.640;13.812;2023-04-24T11:32:35;6.35;;;4.80;;
63312;SDS011;49442;45.640;13.812;2023-04-24T11:37:37;6.30;;;4.38;;
63312;SDS011;49442;45.640;13.812;2023-04-24T11:40:04;9.90;;;5.78;;
63312;SDS011;49442;45.640;13.812;2023-04-24T11:42:35;7.20;;;5.00;;
63312;SDS011;49442;45.640;13.812;2023-04-24T11:45:09;6.22;;;5.03;;
63312;SDS011;49442;45.640;13.812;2023-04-24T11:50:04;9.10;;;5.47;;
63312;SDS011;49442;45.640;13.812;2023-04-24T11:52:32;10.75;;;5.32;;
63312;SDS011;49442;45.640;13.812;2023-04-24T11:55:01;7.95;;;5.07;;
63312;SDS011;49442;45.640;13.812;2023-04-24T11:57:29;8.50;;;6.03;;
63312;SDS011;49442;45.640;13.812;2023-04-24T12:00:03;14.23;;;6.03;;
63312;SDS011;49442;45.640;13.812;2023-04-24T12:02:30;6.80;;;5.35;;
63312;SDS011;49442;45.640;13.812;2023-04-24T12:04:56;10.75;;;6.30;;
63312;SDS011;49442;45.640;13.812;2023-04-24T12:07:22;13.13;;;6.47;;
63312;SDS011;49442;45.640;13.812;2023-04-24T12:09:58;10.52;;;7.20;;
63312;SDS011;49442;45.640;13.812;2023-04-24T12:12:25;11.35;;;6.72;;
63312;SDS011;49442;45.640;13.812;2023-04-24T12:14:53;12.90;;;7.70;;
63312;SDS011;49442;45.640;13.812;2023-04-24T12:17:29;10.07;;;6.57;;
63312;SDS011;49442;45.640;13.812;2023-04-24T12:19:57;11.05;;;6.47;;
63312;SDS011;49442;45.640;13.812;2023-04-24T12:22:24;18.35;;;8.32;;
63312;SDS011;49442;45.640;13.812;2023-04-24T12:24:56;15.35;;;6.13;;
63312;SDS011;49442;45.640;13.812;2023-04-24T12:27:22;14.77;;;7.53;;
63312;SDS011;49442;45.640;13.812;2023-04-24T12:29:51;11.65;;;7.03;;
63312;SDS011;49442;45.640;13.812;2023-04-24T12:32:21;8.45;;;5.85;;
63312;SDS011;49442;45.640;13.812;2023-04-24T12:34:47;6.18;;;4.78;;
63312;SDS011;49442;45.640;13.812;2023-04-24T12:37:14;6.55;;;3.90;;
63312;SDS011;49442;45.640;13.812;2023-04-24T12:39:42;9.98;;;4.45;;
63312;SDS011;49442;45.640;13.812;2023-04-24T12:42:27;10.32;;;4.28;;
63312;SDS011;49442;45.640;13.812;2023-04-24T12:45:02;7.90;;;5.20;;
63312;SDS011;49442;45.640;13.812;2023-04-24T12:47:30;10.30;;;5.93;;
63312;SDS011;49442;45.640;13.812;2023-04-24T12:49:56;13.02;;;6.13;;
63312;SDS011;49442;45.640;13.812;2023-04-24T12:52:22;9.50;;;4.97;;
63312;SDS011;49442;45.640;13.812;2023-04-24T12:54:49;12.32;;;5.13;;
63312;SDS011;49442;45.640;13.812;2023-04-24T12:57:16;6.60;;;3.60;;
63312;SDS011;49442;45.640;13.812;2023-04-24T12:59:42;4.28;;;3.70;;
63312;SDS011;49442;45.640;13.812;2023-04-24T13:02:09;5.55;;;3.13;;
63312;SDS011;49442;45.640;13.812;2023-04-24T13:04:35;3.40;;;2.25;;
63312;SDS011;49442;45.640;13.812;2023-04-24T13:07:01;4.05;;;2.88;;
63312;SDS011;49442;45.640;13.812;2023-04-24T13:09:27;3.10;;;2.30;;
63312;SDS011;49442;45.640;13.812;2023-04-24T13:11:53;8.20;;;5.85;;
63312;SDS011;49442;45.640;13.812;2023-04-24T13:14:20;15.43;;;8.68;;
63312;SDS011;49442;45.640;13.812;2023-04-24T13:16:45;11.65;;;7.85;;
63312;SDS011;49442;45.640;13.812;2023-04-24T13:19:11;21.85;;;13.15;;
63312;SDS011;49442;45.640;13.812;2023-04-24T13:21:37;10.13;;;6.05;;
63312;SDS011;49442;45.640;13.812;2023-04-24T13:24:03;7.57;;;4.40;;
63312;SDS011;49442;45.640;13.812;2023-04-24T13:26:30;5.75;;;3.67;;
63312;SDS011;49442;45.640;13.812;2023-04-24T13:28:55;3.45;;;2.83;;
63312;SDS011;49442;45.640;13.812;2023-04-24T13:31:21;4.45;;;2.80;;
63312;SDS011;49442;45.640;13.812;2023-04-24T13:33:47;5.40;;;3.00;;
63312;SDS011;49442;45.640;13.812;2023-04-24T13:36:13;4.25;;;1.90;;
63312;SDS011;49442;45.640;13.812;2023-04-24T13:38:38;2.97;;;2.00;;
63312;SDS011;49442;45.640;13.812;2023-04-24T13:41:04;5.60;;;2.08;;
63312;SDS011;49442;45.640;13.812;2023-04-24T13:43:30;4.72;;;1.98;;
63312;SDS011;49442;45.640;13.812;2023-04-24T13:45:56;2.38;;;2.17;;
63312;SDS011;49442;45.640;13.812;2023-04-24T13:48:21;2.88;;;2.10;;
63312;SDS011;49442;45.640;13.812;2023-04-24T13:50:47;3.63;;;1.92;;
63312;SDS011;49442;45.640;13.812;2023-04-24T13:53:14;4.05;;;2.38;;
63312;SDS011;49442;45.640;13.812;2023-04-24T13:55:40;4.75;;;2.10;;
63312;SDS011;49442;45.640;13.812;2023-04-24T13:58:05;3.25;;;2.03;;
63312;SDS011;49442;45.640;13.812;2023-04-24T14:00:31;4.65;;;2.17;;
63312;SDS011;49442;45.640;13.812;2023-04-24T14:02:57;2.35;;;1.75;;
63312;SDS011;49442;45.640;13.812;2023-04-24T14:05:23;2.13;;;1.60;;
63312;SDS011;49442;45.640;13.812;2023-04-24T14:07:48;2.55;;;1.42;;
63312;SDS011;49442;45.640;13.812;2023-04-24T14:10:14;2.80;;;1.95;;
63312;SDS011;49442;45.640;13.812;2023-04-24T14:12:40;4.03;;;1.60;;
63312;SDS011;49442;45.640;13.812;2023-04-24T14:15:06;1.98;;;1.50;;
63312;SDS011;49442;45.640;13.812;2023-04-24T14:17:33;2.78;;;1.80;;
63312;SDS011;49442;45.640;13.812;2023-04-24T14:19:59;2.97;;;1.48;;
63312;SDS011;49442;45.640;13.812;2023-04-24T14:22:25;3.65;;;1.40;;
63312;SDS011;49442;45.640;13.812;2023-04-24T14:24:52;1.50;;;1.40;;
63312;SDS011;49442;45.640;13.812;2023-04-24T14:27:18;2.05;;;1.35;;
63312;SDS011;49442;45.640;13.812;2023-04-24T14:29:43;1.73;;;1.50;;
63312;SDS011;49442;45.640;13.812;2023-04-24T14:32:10;3.25;;;2.10;;
63312;SDS011;49442;45.640;13.812;2023-04-24T14:34:36;2.15;;;1.50;;
63312;SDS011;49442;45.640;13.812;2023-04-24T14:37:01;3.30;;;1.48;;
63312;SDS011;49442;45.640;13.812;2023-04-24T14:39:28;2.45;;;1.48;;
63312;SDS011;49442;45.640;13.812;2023-04-24T14:41:53;2.65;;;1.90;;
63312;SDS011;49442;45.640;13.812;2023-04-24T14:44:20;2.00;;;1.45;;
63312;SDS011;49442;45.640;13.812;2023-04-24T14:46:45;2.42;;;1.50;;
63312;SDS011;49442;45.640;13.812;2023-04-24T14:49:11;2.05;;;1.20;;
63312;SDS011;49442;45.640;13.812;2023-04-24T14:51:37;3.10;;;1.55;;
63312;SDS011;49442;45.640;13.812;2023-04-24T14:54:03;1.75;;;1.45;;